Time;durP1;ratioP1;P1;durP2;ratioP2;P2;SDS_P1;SDS_P2;PMS_P1;PMS_P2;Temp;Humidity;BMP_temperature;BMP_pressure;BME280_temperature;BME280_humidity;BME280_pressure;Samples;Min_cycle;Max_cycle;Signal;HPM_P1;HPM_P2
2023/03/25 06:42:42;;;;;;;0.70;0.70;;;;;;;;;;5132074;27;20283;-76
2023/03/25 06:54:36;;;;;;;0.87;0.87;;;;;;;;;;5132677;27;20266;-75
2023/03/25 07:10:46;;;;;;;0.70;0.70;;;;;;;;;;5112015;27;20554;-75
2023/03/25 07:15:13;;;;;;;1.00;0.87;;;5.10;99.90;;;;;;5071348;27;20533;-75
2023/03/25 07:20:10;;;;;;;0.80;0.80;;;4.90;99.90;;;;;;5132598;27;20276;-76
2023/03/25 07:24:07;;;;;;;2.10;0.90;;;5.00;99.90;;;;;;5132181;27;20284;-76
2023/03/25 07:27:50;;;;;;;1.00;0.77;;;5.00;99.90;;;;;;5112070;27;20941;-76
2023/03/25 07:31:51;;;;;;;1.10;0.97;;;5.20;99.90;;;;;;5132368;27;20285;-76
2023/03/25 07:36:05;;;;;;;3.27;1.30;;;5.40;99.90;;;;;;5112003;27;20599;-76
2023/03/25 07:38:31;;;;;;;1.87;1.03;;;6.40;99.90;;;;;;5111280;28;20651;-75
2023/03/25 07:40:57;;;;;;;1.20;1.10;;;6.50;99.90;;;;;;5111673;28;20165;-76
2023/03/25 07:43:23;;;;;;;1.37;0.97;;;6.60;99.90;;;;;;5111204;28;20252;-76
2023/03/25 07:45:48;;;;;;;1.00;1.00;;;6.20;99.90;;;;;;5110938;28;20265;-76
2023/03/25 07:48:15;;;;;;;1.07;1.00;;;6.20;99.90;;;;;;5111413;28;20209;-77
2023/03/25 07:50:42;;;;;;;0.80;0.80;;;6.20;99.90;;;;;;5111025;28;20261;-76
2023/03/25 07:53:08;;;;;;;0.90;0.90;;;6.20;99.90;;;;;;5111115;28;20709;-75
2023/03/25 07:55:34;;;;;;;1.67;0.67;;;6.40;99.90;;;;;;5111256;28;20249;-76
2023/03/25 07:58:01;;;;;;;1.00;0.90;;;6.30;99.90;;;;;;5111153;28;20559;-75
2023/03/25 08:00:28;;;;;;;1.97;1.07;;;6.20;99.90;;;;;;5109678;28;20172;-76
2023/03/25 08:02:54;;;;;;;0.80;0.80;;;6.00;99.90;;;;;;5110495;28;20271;-75
2023/03/25 08:05:20;;;;;;;0.80;0.80;;;6.00;99.90;;;;;;5107069;28;20642;-75
2023/03/25 08:07:51;;;;;;;1.20;1.10;;;5.80;99.90;;;;;;5107191;28;20288;-75
2023/03/25 08:10:17;;;;;;;1.10;1.00;;;5.70;99.90;;;;;;5110665;28;20163;-75
2023/03/25 08:12:44;;;;;;;1.67;1.13;;;5.70;99.90;;;;;;5110529;28;20195;-75
2023/03/25 08:15:12;;;;;;;1.53;0.80;;;5.70;99.90;;;;;;5109142;28;20702;-76
2023/03/25 08:17:38;;;;;;;1.30;1.00;;;6.00;99.90;;;;;;5109295;28;20325;-76
2023/03/25 08:20:06;;;;;;;0.63;0.63;;;6.30;99.90;;;;;;5109170;28;20168;-76
2023/03/25 08:22:32;;;;;;;0.90;0.80;;;6.20;99.90;;;;;;5110164;28;20258;-75
2023/03/25 08:24:58;;;;;;;1.33;1.10;;;6.50;99.90;;;;;;5110943;28;20626;-75
2023/03/25 08:27:25;;;;;;;0.70;0.70;;;6.80;99.90;;;;;;5110343;28;20638;-76
2023/03/25 08:29:54;;;;;;;1.20;1.10;;;6.70;99.90;;;;;;5109084;28;20663;-78
2023/03/25 08:32:20;;;;;;;1.07;0.90;;;6.80;99.90;;;;;;5110030;28;20197;-76
2023/03/25 08:34:46;;;;;;;2.73;1.43;;;7.10;99.90;;;;;;5109998;28;20203;-75
2023/03/25 08:37:14;;;;;;;1.50;1.20;;;7.20;99.90;;;;;;5108830;28;20180;-75
2023/03/25 08:39:40;;;;;;;1.50;1.30;;;7.00;99.90;;;;;;5110752;28;20217;-76
2023/03/25 08:42:11;;;;;;;1.87;1.37;;;7.10;99.90;;;;;;5110002;28;20191;-75
2023/03/25 08:44:37;;;;;;;1.30;1.20;;;7.00;99.90;;;;;;5110448;28;20614;-76
2023/03/25 08:47:03;;;;;;;1.30;1.20;;;6.90;99.90;;;;;;5098360;28;20313;-76
2023/03/25 08:49:29;;;;;;;1.27;0.97;;;7.20;99.90;;;;;;5095098;28;20173;-75
2023/03/25 08:51:57;;;;;;;3.50;1.20;;;7.30;99.90;;;;;;5096423;28;20210;-76
2023/03/25 08:54:24;;;;;;;0.80;0.80;;;7.40;99.90;;;;;;5096136;28;20192;-76
2023/03/25 08:56:50;;;;;;;2.80;1.20;;;7.40;99.90;;;;;;5096761;28;20174;-76
2023/03/25 08:59:16;;;;;;;3.90;2.40;;;7.20;99.90;;;;;;5094977;28;20173;-76
2023/03/25 09:01:43;;;;;;;2.77;1.33;;;7.40;99.90;;;;;;5095618;28;20561;-75
2023/03/25 09:04:09;;;;;;;2.60;1.30;;;7.60;99.90;;;;;;5096457;28;20214;-76
2023/03/25 09:06:35;;;;;;;1.87;1.30;;;8.00;99.90;;;;;;5096018;28;20172;-75
2023/03/25 09:09:04;;;;;;;3.53;1.60;;;8.20;99.90;;;;;;5094700;28;20277;-76
2023/03/25 09:11:33;;;;;;;2.40;1.50;;;8.10;99.90;;;;;;5095974;28;20215;-76
2023/03/25 09:14:01;;;;;;;3.03;1.97;;;8.20;99.90;;;;;;5095719;28;20227;-75
2023/03/25 09:16:27;;;;;;;1.50;0.90;;;8.60;99.90;;;;;;5096027;28;20164;-76
2023/03/25 09:18:52;;;;;;;1.10;1.00;;;8.80;99.90;;;;;;5096574;28;20622;-76
2023/03/25 09:21:18;;;;;;;1.57;1.00;;;9.00;99.90;;;;;;5096096;28;20164;-75
2023/03/25 09:23:44;;;;;;;2.43;1.13;;;9.10;99.90;;;;;;5095608;28;20172;-76
2023/03/25 09:26:10;;;;;;;0.90;0.90;;;9.40;99.90;;;;;;5095708;28;20172;-76
2023/03/25 09:28:36;;;;;;;2.33;1.00;;;9.40;99.90;;;;;;5094362;28;20638;-77
2023/03/25 09:31:02;;;;;;;2.93;1.10;;;9.30;99.90;;;;;;5095441;28;20187;-77
2023/03/25 09:33:27;;;;;;;2.27;1.03;;;9.30;99.90;;;;;;5095350;28;20259;-75
2023/03/25 09:35:54;;;;;;;0.97;0.80;;;9.20;99.90;;;;;;5094466;28;20207;-76
2023/03/25 09:38:19;;;;;;;2.70;0.80;;;8.80;99.90;;;;;;5094433;28;20174;-76
2023/03/25 09:40:45;;;;;;;1.57;0.80;;;8.50;99.90;;;;;;5094398;28;20168;-75
2023/03/25 09:43:32;;;;;;;0.73;0.73;;;8.40;99.90;;;;;;5094186;28;20260;-76
2023/03/25 09:45:58;;;;;;;1.17;0.83;;;8.50;99.90;;;;;;5094274;28;20214;-76
2023/03/25 09:48:33;;;;;;;1.43;0.70;;;8.60;99.90;;;;;;5092978;28;20172;-76
2023/03/25 09:51:45;;;;;;;0.70;0.70;;;8.60;99.90;;;;;;5095131;28;20172;-75
2023/03/25 09:54:25;;;;;;;2.97;1.20;;;8.70;99.90;;;;;;5091875;28;20240;-76
2023/03/25 09:56:51;;;;;;;0.80;0.80;;;8.70;99.90;;;;;;5094885;28;20179;-75
2023/03/25 09:59:22;;;;;;;1.33;0.90;;;8.50;99.90;;;;;;5094380;28;20168;-75
2023/03/25 10:02:25;;;;;;;1.27;0.87;;;8.40;99.90;;;;;;5094715;28;20733;-76
2023/03/25 10:05:03;;;;;;;1.53;0.90;;;8.20;99.90;;;;;;5094827;28;20172;-75
2023/03/25 10:07:40;;;;;;;1.30;1.20;;;8.30;99.90;;;;;;5095052;28;20165;-75
2023/03/25 10:10:54;;;;;;;1.00;1.00;;;8.50;99.90;;;;;;5094756;28;20160;-76
2023/03/25 10:13:49;;;;;;;2.03;1.10;;;8.50;99.90;;;;;;5076710;28;20211;-75
2023/03/25 10:16:50;;;;;;;1.80;0.90;;;8.60;99.90;;;;;;5093413;28;20634;-76
2023/03/25 10:19:28;;;;;;;1.43;1.00;;;8.90;99.90;;;;;;5094768;28;20159;-76
2023/03/25 10:22:07;;;;;;;1.50;1.30;;;9.00;99.90;;;;;;5094977;28;20191;-75
2023/03/25 10:24:39;;;;;;;1.17;0.70;;;9.70;99.90;;;;;;5093351;28;20172;-76
2023/03/25 10:27:14;;;;;;;0.70;0.70;;;9.50;99.90;;;;;;5094928;28;20515;-76
2023/03/25 10:29:51;;;;;;;0.60;0.60;;;9.30;99.90;;;;;;5094574;28;20210;-76
2023/03/25 10:32:40;;;;;;;0.87;0.60;;;9.20;99.90;;;;;;5094357;28;20187;-75
2023/03/25 10:35:14;;;;;;;1.17;0.50;;;9.30;99.90;;;;;;5093669;28;20265;-76
2023/03/25 10:37:43;;;;;;;0.77;0.77;;;9.10;99.90;;;;;;5094560;28;20153;-75
2023/03/25 10:40:12;;;;;;;0.80;0.67;;;9.20;99.90;;;;;;5094276;28;20251;-76
2023/03/25 10:43:07;;;;;;;0.50;0.50;;;9.30;99.90;;;;;;5094009;28;20199;-76
2023/03/25 10:45:34;;;;;;;0.77;0.60;;;9.60;99.90;;;;;;5071690;28;20191;-76
2023/03/25 10:48:27;;;;;;;0.40;0.40;;;9.60;99.90;;;;;;5094570;28;20629;-76
2023/03/25 10:51:09;;;;;;;2.30;0.47;;;10.10;99.90;;;;;;5091596;28;20192;-77
2023/03/25 10:53:36;;;;;;;0.83;0.37;;;9.50;99.90;;;;;;5093316;28;20592;-75
2023/03/25 10:56:17;;;;;;;0.37;0.37;;;9.00;99.90;;;;;;5094296;28;20208;-76
2023/03/25 10:58:49;;;;;;;2.40;0.50;;;8.70;99.90;;;;;;5091707;28;20164;-76
2023/03/25 11:01:20;;;;;;;0.80;0.50;;;9.10;99.90;;;;;;5091037;28;20210;-76
2023/03/25 11:03:51;;;;;;;0.60;0.60;;;9.10;99.90;;;;;;5093045;28;20152;-76
2023/03/25 11:06:29;;;;;;;0.60;0.60;;;9.40;99.90;;;;;;5093402;28;20172;-76
2023/03/25 11:09:12;;;;;;;1.37;0.50;;;9.60;99.90;;;;;;5092696;28;20244;-77
2023/03/25 11:11:38;;;;;;;0.40;0.40;;;9.60;99.90;;;;;;5091464;28;20209;-77
2023/03/25 11:14:04;;;;;;;0.87;0.50;;;9.10;99.90;;;;;;5093406;28;20218;-77
2023/03/25 11:16:35;;;;;;;0.83;0.60;;;8.60;99.90;;;;;;5093643;28;20640;-76
2023/03/25 11:19:03;;;;;;;1.03;0.63;;;8.30;99.90;;;;;;5094689;28;20187;-76
2023/03/25 11:21:34;;;;;;;1.37;0.80;;;8.30;99.90;;;;;;5095356;28;20191;-76
2023/03/25 11:24:00;;;;;;;0.93;0.60;;;8.40;99.90;;;;;;5093516;28;20160;-76
2023/03/25 11:26:29;;;;;;;1.37;0.60;;;8.50;99.90;;;;;;5093686;28;20596;-75
2023/03/25 11:29:08;;;;;;;1.23;0.70;;;8.60;99.90;;;;;;5094172;28;20167;-76
2023/03/25 11:31:36;;;;;;;0.93;0.50;;;9.20;99.90;;;;;;5093626;28;20198;-76
2023/03/25 11:34:09;;;;;;;0.93;0.50;;;9.80;99.90;;;;;;5093151;28;20204;-76
2023/03/25 11:36:38;;;;;;;1.53;0.60;;;10.00;99.90;;;;;;5092285;28;20171;-76
2023/03/25 11:39:38;;;;;;;1.80;0.60;;;9.90;99.90;;;;;;5092296;28;20187;-76
2023/03/25 11:42:16;;;;;;;0.60;0.60;;;10.40;99.90;;;;;;5087542;28;20200;-76
2023/03/25 11:44:50;;;;;;;1.00;0.57;;;10.30;99.90;;;;;;5094073;28;20168;-75
2023/03/25 11:47:22;;;;;;;1.20;0.77;;;9.60;99.90;;;;;;5093416;28;20199;-76
2023/03/25 11:49:49;;;;;;;0.90;0.60;;;9.40;99.90;;;;;;5092171;28;20241;-76
2023/03/25 11:52:26;;;;;;;1.03;0.50;;;9.20;99.90;;;;;;5091951;28;20196;-76
2023/03/25 11:54:54;;;;;;;0.87;0.60;;;9.60;99.90;;;;;;5092404;28;20192;-76
2023/03/25 11:57:25;;;;;;;0.47;0.47;;;9.90;99.90;;;;;;5093218;28;20172;-76
2023/03/25 12:00:05;;;;;;;0.60;0.50;;;9.60;99.90;;;;;;5093386;28;20259;-76
2023/03/25 12:02:40;;;;;;;0.67;0.50;;;9.10;99.90;;;;;;5092026;28;20203;-76
2023/03/25 12:05:11;;;;;;;0.60;0.50;;;8.70;99.90;;;;;;5092000;28;20168;-76
2023/03/25 12:07:42;;;;;;;0.80;0.60;;;8.40;99.90;;;;;;5093278;28;20180;-75
2023/03/25 12:10:18;;;;;;;1.40;0.60;;;8.10;99.90;;;;;;5093136;28;20661;-75
2023/03/25 12:12:51;;;;;;;1.00;0.57;;;7.60;99.90;;;;;;5092996;28;20199;-76
2023/03/25 12:15:58;;;;;;;0.43;0.43;;;7.30;99.90;;;;;;5093839;28;20270;-76
2023/03/25 12:18:46;;;;;;;0.60;0.60;;;6.90;99.90;;;;;;5048359;28;20186;-76
2023/03/25 12:21:40;;;;;;;5.77;0.83;;;6.70;99.90;;;;;;5094236;28;20158;-77
2023/03/25 12:24:38;;;;;;;0.70;0.60;;;6.30;99.90;;;;;;5095891;28;20168;-78
2023/03/25 12:27:16;;;;;;;1.33;1.10;;;6.20;99.90;;;;;;5095897;28;20170;-76
2023/03/25 12:30:09;;;;;;;0.83;0.77;;;7.00;99.90;;;;;;5095683;28;20511;-76
2023/03/25 12:33:13;;;;;;;0.60;0.60;;;7.10;99.90;;;;;;5095468;28;20195;-76
2023/03/25 12:35:46;;;;;;;0.90;0.90;;;7.10;99.90;;;;;;5097176;28;20724;-76
2023/03/25 12:38:30;;;;;;;0.80;0.57;;;7.00;99.90;;;;;;5096787;28;20491;-76
2023/03/25 12:41:14;;;;;;;0.60;0.60;;;6.80;99.90;;;;;;5096755;28;20154;-75
2023/03/25 12:43:47;;;;;;;1.23;0.87;;;7.90;99.90;;;;;;5095205;28;20169;-75
2023/03/25 12:46:21;;;;;;;0.67;0.60;;;8.80;99.90;;;;;;5096699;28;20196;-76
2023/03/25 12:49:28;;;;;;;1.30;0.87;;;8.90;99.90;;;;;;5096766;28;20156;-76
2023/03/25 12:52:12;;;;;;;0.50;0.50;;;8.30;99.90;;;;;;5096419;28;20191;-76
2023/03/25 12:54:49;;;;;;;1.30;0.53;;;7.70;99.90;;;;;;5096315;28;20188;-76
2023/03/25 12:57:45;;;;;;;0.40;0.40;;;7.10;99.90;;;;;;5096387;28;20575;-76
2023/03/25 13:00:32;;;;;;;0.90;0.90;;;7.30;99.90;;;;;;5095018;28;20169;-76
2023/03/25 13:03:11;;;;;;;1.00;0.77;;;8.70;99.90;;;;;;5096237;28;20206;-76
2023/03/25 13:05:50;;;;;;;0.63;0.63;;;9.50;99.90;;;;;;5096108;28;20496;-76
2023/03/25 13:08:25;;;;;;;0.97;0.70;;;9.60;99.90;;;;;;5094945;28;20539;-76
2023/03/25 13:11:15;;;;;;;1.40;0.63;;;8.70;99.90;;;;;;5095949;28;20644;-75
2023/03/25 13:13:43;;;;;;;0.40;0.40;;;8.10;99.90;;;;;;5095524;28;20201;-76
2023/03/25 13:16:23;;;;;;;0.73;0.73;;;7.70;99.90;;;;;;5096211;28;20654;-76
2023/03/25 13:18:52;;;;;;;1.50;1.00;;;7.70;99.90;;;;;;5096219;28;20155;-76
2023/03/25 13:21:22;;;;;;;0.93;0.60;;;7.80;99.90;;;;;;5095744;28;20258;-76
2023/03/25 13:23:55;;;;;;;1.20;1.10;;;8.10;99.90;;;;;;5094323;28;20156;-76
2023/03/25 13:26:23;;;;;;;0.93;0.90;;;8.30;99.90;;;;;;5096080;28;20179;-76
2023/03/25 13:28:54;;;;;;;1.17;0.80;;;9.10;99.90;;;;;;5095524;28;20160;-76
2023/03/25 13:31:26;;;;;;;1.10;1.00;;;10.30;99.90;;;;;;5095717;28;20176;-76
2023/03/25 13:34:29;;;;;;;1.20;1.00;;;10.40;99.90;;;;;;5095316;28;20197;-75
2023/03/25 13:37:02;;;;;;;1.27;0.80;;;11.20;99.90;;;;;;5095619;28;20172;-76
2023/03/25 13:40:05;;;;;;;2.23;1.40;;;11.10;99.90;;;;;;5095683;28;20157;-76
2023/03/25 13:42:45;;;;;;;1.00;0.70;;;11.50;99.90;;;;;;5095215;28;20192;-76
2023/03/25 13:45:19;;;;;;;0.87;0.60;;;11.90;99.90;;;;;;5095742;28;20175;-76
2023/03/25 13:48:14;;;;;;;1.90;0.53;;;11.70;99.90;;;;;;5095211;28;20208;-76
2023/03/25 13:50:40;;;;;;;0.70;0.60;;;12.00;99.90;;;;;;5095390;28;20627;-76
2023/03/25 13:53:09;;;;;;;0.80;0.67;;;12.80;99.90;;;;;;5094869;28;20194;-76
2023/03/25 13:55:43;;;;;;;0.47;0.47;;;12.50;99.90;;;;;;5095000;28;20718;-76
2023/03/25 13:58:38;;;;;;;1.20;0.80;;;12.80;99.90;;;;;;5095497;28;20161;-76
2023/03/25 14:01:19;;;;;;;1.60;0.80;;;12.40;99.90;;;;;;5094948;28;20172;-76
2023/03/25 14:04:13;;;;;;;1.07;0.70;;;11.70;99.90;;;;;;5093806;28;20261;-76
2023/03/25 14:07:10;;;;;;;1.00;0.50;;;11.90;99.90;;;;;;5094941;28;20167;-76
2023/03/25 14:09:59;;;;;;;2.43;0.50;;;12.70;99.90;;;;;;5094918;28;20162;-76
2023/03/25 14:12:33;;;;;;;1.53;0.70;;;12.20;99.90;;;;;;5093645;28;20599;-76
2023/03/25 14:15:05;;;;;;;1.33;0.60;;;11.00;99.90;;;;;;5093308;28;20196;-76
2023/03/25 14:17:34;;;;;;;0.70;0.60;;;11.70;99.90;;;;;;5094807;28;20178;-76
2023/03/25 14:20:04;;;;;;;1.67;0.80;;;12.40;99.90;;;;;;5094746;28;20208;-76
2023/03/25 14:22:35;;;;;;;2.17;0.70;;;12.70;99.90;;;;;;5094555;28;20533;-77
2023/03/25 14:25:02;;;;;;;1.60;1.00;;;13.10;99.90;;;;;;5094674;28;20161;-76
2023/03/25 14:27:36;;;;;;;0.90;0.73;;;12.80;99.90;;;;;;5094613;28;20535;-76
2023/03/25 14:30:05;;;;;;;1.40;0.80;;;13.40;99.90;;;;;;5093943;28;20251;-76
2023/03/25 14:32:43;;;;;;;0.90;0.60;;;13.40;99.90;;;;;;5094316;28;20196;-77
2023/03/25 14:35:33;;;;;;;1.17;0.60;;;12.60;99.90;;;;;;5094636;28;20206;-76
2023/03/25 14:38:07;;;;;;;1.07;0.70;;;12.10;99.90;;;;;;5094633;28;20528;-76
2023/03/25 14:40:42;;;;;;;2.03;0.70;;;12.90;99.90;;;;;;5094774;28;20198;-77
2023/03/25 14:43:23;;;;;;;1.10;0.80;;;13.30;99.90;;;;;;5092638;28;20258;-73
2023/03/25 14:46:10;;;;;;;2.27;0.90;;;12.30;99.90;;;;;;5094077;28;20179;-76
2023/03/25 14:49:00;;;;;;;1.53;0.90;;;11.10;99.90;;;;;;5092830;28;20231;-76
2023/03/25 14:51:27;;;;;;;1.30;0.60;;;10.10;99.90;;;;;;5078204;28;20213;-76
2023/03/25 14:54:19;;;;;;;2.00;1.00;;;9.60;99.90;;;;;;5094143;28;20170;-76
2023/03/25 14:57:00;;;;;;;1.40;0.90;;;9.30;99.90;;;;;;5093814;28;20649;-76
2023/03/25 14:59:34;;;;;;;1.80;0.90;;;9.40;99.90;;;;;;5094264;28;20148;-76
2023/03/25 15:02:08;;;;;;;1.80;1.00;;;9.30;99.90;;;;;;5093619;28;20274;-76
2023/03/25 15:04:36;;;;;;;2.47;1.40;;;9.30;99.90;;;;;;5094326;28;20263;-75
2023/03/25 15:07:07;;;;;;;1.83;0.90;;;9.10;99.90;;;;;;5092512;28;20194;-76
2023/03/25 15:09:42;;;;;;;1.83;0.90;;;9.00;99.90;;;;;;5094517;28;20173;-76
2023/03/25 15:12:14;;;;;;;1.27;0.80;;;8.80;99.90;;;;;;5093788;28;20188;-76
2023/03/25 15:14:42;;;;;;;1.70;1.07;;;8.80;99.90;;;;;;5093880;28;20241;-76
2023/03/25 15:17:43;;;;;;;3.03;1.00;;;8.70;99.90;;;;;;5093363;28;20592;-75
2023/03/25 15:20:10;;;;;;;1.87;0.90;;;8.60;99.90;;;;;;5092286;28;20566;-76
2023/03/25 15:22:36;;;;;;;2.00;1.00;;;8.60;99.90;;;;;;5092110;28;20622;-76
2023/03/25 15:25:24;;;;;;;3.00;0.90;;;8.70;99.90;;;;;;5093610;28;20233;-76
2023/03/25 15:28:26;;;;;;;1.50;0.93;;;8.90;99.90;;;;;;5093982;28;20689;-77
2023/03/25 15:31:07;;;;;;;1.57;0.90;;;9.20;99.90;;;;;;5093429;28;20168;-76
2023/03/25 15:34:03;;;;;;;0.70;0.70;;;9.40;99.90;;;;;;5093632;28;20532;-76
2023/03/25 15:36:37;;;;;;;2.37;1.03;;;8.80;99.90;;;;;;5094308;28;20266;-76
2023/03/25 15:39:25;;;;;;;1.37;0.90;;;8.60;99.90;;;;;;5093629;28;20618;-76
2023/03/25 15:42:08;;;;;;;1.97;1.00;;;8.70;99.90;;;;;;5093263;28;20570;-75
2023/03/25 15:44:59;;;;;;;1.60;0.97;;;8.70;99.90;;;;;;5092247;28;20228;-76
2023/03/25 15:47:28;;;;;;;2.20;1.00;;;8.70;99.90;;;;;;5093310;28;20807;-75
2023/03/25 15:50:31;;;;;;;4.50;3.30;;;8.60;99.90;;;;;;5092433;28;20178;-76
2023/03/25 15:53:44;;;;;;;3.63;2.77;;;8.50;99.90;;;;;;5093162;28;20264;-76
2023/03/25 15:56:33;;;;;;;2.97;1.40;;;8.40;99.90;;;;;;5015565;28;20298;-76
2023/03/25 15:58:58;;;;;;;4.17;2.93;;;8.50;99.90;;;;;;5092373;28;20239;-76
2023/03/25 16:01:28;;;;;;;2.03;1.30;;;8.40;99.90;;;;;;5097259;28;20203;-76
2023/03/25 16:04:05;;;;;;;1.80;1.23;;;8.40;99.90;;;;;;5097363;28;20182;-76
2023/03/25 16:06:39;;;;;;;0.90;0.90;;;8.30;99.90;;;;;;5097674;28;20207;-76
2023/03/25 16:09:08;;;;;;;1.90;1.00;;;8.20;99.90;;;;;;5097318;28;20173;-75
2023/03/25 16:11:33;;;;;;;1.23;0.90;;;8.00;99.90;;;;;;5097073;28;20192;-76
2023/03/25 16:14:15;;;;;;;1.20;1.10;;;8.00;99.90;;;;;;5096789;28;20242;-76
2023/03/25 16:16:46;;;;;;;3.17;1.53;;;7.90;99.90;;;;;;5097211;28;20161;-75
2023/03/25 16:22:51;;;;;;;1.90;0.90;;;7.30;99.90;;;;;;5070619;28;20638;-75
2023/03/25 16:36:33;;;;;;;1.20;1.00;;;7.00;99.90;;;;;;5132582;27;20752;-75
2023/03/25 16:47:38;;;;;;;1.50;0.90;;;6.60;99.90;;;;;;5132670;27;20300;-76
2023/03/25 16:53:33;;;;;;;1.40;1.30;;;6.70;99.90;;;;;;5111391;27;20275;-75
